METAR Data
IDs: Format: Raw Decoded Include TAF

Data at: 2109 UTC 08 Aug 2020

KCGZ 082056Z AUTO VRB06KT 10SM CLR 42/07 A2988 RMK AO2 SLP098 T04170067 58018
KCGZ 081956Z AUTO VRB03KT 10SM CLR 41/07 A2990 RMK AO2 SLP104 T04060072
KCGZ 081856Z AUTO VRB05KT 10SM CLR 40/09 A2992 RMK AO2 SLP110 T04000089
KCGZ 081756Z AUTO VRB03KT 10SM CLR 38/10 A2994 RMK AO2 SLP117 T03830100 10383 20261 58006
KCGZ 081656Z AUTO VRB03KT 10SM CLR 37/11 A2995 RMK AO2 SLP121 T03720111
KCGZ 081556Z AUTO 20004KT 10SM CLR 34/12 A2995 RMK AO2 SLP123 T03390122
KCGZ 081456Z AUTO 00000KT 10SM CLR 32/11 A2996 RMK AO2 SLP124 T03170111 51016
KCGZ 081356Z AUTO 00000KT 10SM CLR 29/10 A2995 RMK AO2 SLP121 T02940100
KCGZ 081256Z AUTO 00000KT 10SM CLR 26/09 A2993 RMK AO2 SLP117 T02610094
KCGZ 081156Z AUTO 00000KT 10SM CLR 27/09 A2991 RMK AO2 SLP108 7//// T02670094 10356 20267 53005
KCGZ 081056Z AUTO 16004KT 10SM CLR 29/11 A2990 RMK AO2 SLP106 T02940106
KCGZ 080956Z AUTO 00000KT 10SM CLR 29/10 A2989 RMK AO2 SLP102 T02940100
KCGZ 080856Z AUTO 00000KT 10SM CLR 31/11 A2989 RMK AO2 SLP101 T03110106 53005
KCGZ 080756Z AUTO 29008KT 10SM CLR 34/12 A2988 RMK AO2 SLP098 T03390122
KCGZ 080656Z AUTO 29008KT 10SM CLR 35/10 A2988 RMK AO2 SLP098 T03500100 404170267
KCGZ 080556Z AUTO 30008KT 10SM CLR 36/09 A2988 RMK AO2 SLP096 T03560089 10417 20339 51017
KCGZ 080456Z AUTO 01003KT 10SM CLR 36/09 A2987 RMK AO2 SLP094 T03560094
KCGZ 080356Z AUTO VRB05KT 10SM CLR 36/09 A2985 RMK AO2 SLP088 T03560094
KCGZ 080256Z AUTO 35005KT 10SM CLR 38/09 A2983 RMK AO2 SLP080 T03830094 53004
KCGZ 080156Z AUTO 30003KT 10SM CLR 40/09 A2982 RMK AO2 SLP076 T04000094
KCGZ 080056Z AUTO 31008KT 10SM CLR 41/09 A2981 RMK AO2 SLP072 T04110094
KCGZ 072356Z AUTO 01010KT 10SM CLR 41/11 A2982 RMK AO2 SLP077 T04060106 10411 20372 56015
KCGZ 072256Z AUTO 31005KT 10SM CLR 41/11 A2983 RMK AO2 SLP081 T04060106
KCGZ 072156Z AUTO VRB04KT 10SM CLR 41/11 A2984 RMK AO2 SLP086 T04060111
KCGZ 072056Z AUTO 21004KT 10SM CLR 41/11 A2986 RMK AO2 SLP092 T04060111 58018
KCGZ 071956Z AUTO VRB03KT 10SM CLR 39/11 A2989 RMK AO2 SLP100 T03890111
KCGZ 071856Z AUTO 28006G16KT 10SM CLR 39/12 A2990 RMK AO2 SLP104 T03890122
KCGZ 071756Z AUTO 17007KT 10SM CLR 37/12 A2992 RMK AO2 SLP111 6//// T03720122 10372 20267 50001
KCGZ 071656Z AUTO 19005KT 10SM CLR 35/13 A2993 RMK AO2 SLP115 T03500133
KCGZ 071556Z AUTO 12004KT 10SM CLR 33/13 A2992 RMK AO2 SLP113 T03330128
KCGZ 071456Z AUTO 17006KT 10SM CLR 32/12 A2992 RMK AO2 SLP110 6//// T03220122 53019
KCGZ 071356Z AUTO 22005KT 10SM CLR 29/10 A2989 RMK AO2 SLP101 T02940100
KCGZ 071256Z AUTO 22005KT 10SM CLR 27/09 A2987 RMK AO2 SLP096 T02720094
KCGZ 071156Z AUTO 19006KT 10SM CLR 27/09 A2986 RMK AO2 SLP091 6//// 7//// T02720094 10333 20267 53009
KCGZ 071056Z AUTO 24005KT 10SM CLR 27/08 A2984 RMK AO2 SLP085 T02720083
KCGZ 070956Z AUTO 00000KT 10SM CLR 28/08 A2983 RMK AO2 SLP081 T02830083